createdAt,value
2023-05-10T00:02:09.462Z,95578.16
2023-05-10T00:04:55.574Z,95570.66
2023-05-10T00:07:41.999Z,95558.84
2023-05-10T00:10:27.691Z,95574.50
2023-05-10T00:13:13.958Z,95563.63
2023-05-10T00:15:59.997Z,95559.78
2023-05-10T00:18:46.139Z,95567.47
2023-05-10T00:21:33.244Z,95557.25
2023-05-10T00:24:19.235Z,95562.69
2023-05-10T00:27:05.178Z,95561.56
2023-05-10T00:29:51.326Z,95558.84
2023-05-10T00:32:37.162Z,95561.09
2023-05-10T00:35:24.060Z,95558.38
2023-05-10T00:38:10.261Z,95559.19
2023-05-10T00:40:56.137Z,95552.47
2023-05-10T00:43:48.026Z,95559.50
2023-05-10T00:46:34.347Z,95560.44
2023-05-10T00:49:20.723Z,95555.34
2023-05-10T00:52:07.133Z,95559.66
2023-05-10T00:54:53.519Z,95560.44
2023-05-10T00:57:39.875Z,95563.63
2023-05-10T01:00:26.667Z,95549.44
2023-05-10T01:03:13.338Z,95551.19
2023-05-10T01:05:59.466Z,95549.44
2023-05-10T01:08:45.597Z,95546.38
2023-05-10T01:11:31.495Z,95538.88
2023-05-10T01:14:19.743Z,95531.38
2023-05-10T01:17:06.598Z,95544.00
2023-05-10T01:19:52.756Z,95538.56
2023-05-10T01:23:00.554Z,95533.66
2023-05-10T01:26:05.220Z,95537.75
2023-05-10T01:29:30.466Z,95529.00
2023-05-10T01:32:25.849Z,95529.13
2023-05-10T01:35:33.891Z,95529.81
2023-05-10T01:38:37.243Z,95506.19
2023-05-10T01:41:47.853Z,95522.47
2023-05-10T01:45:01.529Z,95517.78
2023-05-10T01:48:09.477Z,95513.50
2023-05-10T01:50:56.227Z,95516.03
2023-05-10T01:53:43.791Z,95513.63
2023-05-10T01:56:32.562Z,95510.31
2023-05-10T01:59:19.808Z,95501.53
2023-05-10T02:02:06.938Z,95516.41
2023-05-10T02:04:54.567Z,95513.69
2023-05-10T02:07:41.269Z,95500.47
2023-05-10T02:10:31.401Z,95510.41
2023-05-10T02:13:18.557Z,95517.56
2023-05-10T02:16:04.805Z,95514.38
2023-05-10T02:18:53.190Z,95516.31
2023-05-10T02:21:40.783Z,95506.09
2023-05-10T02:24:27.742Z,95518.09
2023-05-10T02:27:13.885Z,95508.00
2023-05-10T02:30:01.900Z,95511.34
2023-05-10T02:32:48.399Z,95507.50
2023-05-10T02:35:35.064Z,95501.28
2023-05-10T02:38:22.614Z,95506.84
2023-05-10T02:41:11.344Z,95509.22
2023-05-10T02:44:01.161Z,95506.19
2023-05-10T02:46:47.990Z,95506.66
2023-05-10T02:49:33.920Z,95503.94
2023-05-10T02:52:24.733Z,95500.41
2023-05-10T02:55:13.711Z,95497.38
2023-05-10T02:58:03.325Z,95490.69
2023-05-10T03:00:49.460Z,95492.28
2023-05-10T03:03:35.585Z,95492.91
2023-05-10T03:06:21.394Z,95480.34
2023-05-10T03:09:08.700Z,95485.56
2023-05-10T03:12:03.181Z,95485.13
2023-05-10T03:15:05.137Z,95478.28
2023-05-10T03:18:10.698Z,95494.56
2023-05-10T03:21:01.674Z,95485.31
2023-05-10T03:23:58.059Z,95482.09
2023-05-10T03:26:46.770Z,95479.72
2023-05-10T03:29:37.578Z,95475.28
2023-05-10T03:32:24.563Z,95477.53
2023-05-10T03:35:11.517Z,95475.47
2023-05-10T03:37:57.482Z,95477.06
2023-05-10T03:40:43.341Z,95480.56
2023-05-10T03:43:29.491Z,95474.06
2023-05-10T03:46:15.430Z,95486.53
2023-05-10T03:49:01.980Z,95484.94
2023-05-10T03:51:47.962Z,95477.09
2023-05-10T03:54:33.746Z,95475.50
2023-05-10T03:57:19.599Z,95477.91
2023-05-10T04:00:05.961Z,95472.78
2023-05-10T04:03:00.597Z,95474.06
2023-05-10T04:05:46.993Z,95477.91
2023-05-10T04:08:32.962Z,95481.09
2023-05-10T04:11:18.829Z,95475.19
2023-05-10T04:14:04.875Z,95481.75
2023-05-10T04:16:50.734Z,95473.13
2023-05-10T04:19:36.572Z,95488.13
2023-05-10T04:22:22.423Z,95481.41
2023-05-10T04:25:08.766Z,95484.94
2023-05-10T04:27:54.513Z,95485.25
2023-05-10T04:30:40.328Z,95481.75
2023-05-10T04:33:26.450Z,95482.88
2023-05-10T04:36:12.756Z,95481.28
2023-05-10T04:38:59.071Z,95489.72
2023-05-10T04:41:45.078Z,95480.16
2023-05-10T04:44:31.744Z,95477.25
2023-05-10T04:47:17.818Z,95476.78
2023-05-10T04:50:05.349Z,95483.13
2023-05-10T04:52:52.748Z,95478.84
2023-05-10T04:55:39.448Z,95486.81
2023-05-10T04:58:25.543Z,95490.00
2023-05-10T05:01:12.152Z,95490.00
2023-05-10T05:03:59.374Z,95488.88
2023-05-10T05:06:46.551Z,95491.38
2023-05-10T05:09:33.212Z,95487.44
2023-05-10T05:12:20.268Z,95483.69
2023-05-10T05:15:09.060Z,95484.97
2023-05-10T05:17:56.101Z,95489.59
2023-05-10T05:20:42.014Z,95496.00
2023-05-10T05:23:28.283Z,95481.94
2023-05-10T05:26:14.315Z,95502.66
2023-05-10T05:29:00.506Z,95501.44
2023-05-10T05:31:46.571Z,95506.19
2023-05-10T05:34:32.780Z,95506.19
2023-05-10T05:37:22.565Z,95494.41
2023-05-10T05:40:09.470Z,95502.34
2023-05-10T05:42:55.669Z,95497.56
2023-05-10T05:45:42.043Z,95500.28
2023-05-10T05:48:28.202Z,95496.00
2023-05-10T05:51:14.333Z,95499.16
2023-05-10T05:54:00.350Z,95500.75
2023-05-10T05:56:46.186Z,95500.75
2023-05-10T05:59:32.405Z,95499.31
2023-05-10T06:02:18.647Z,95498.50
2023-05-10T06:05:04.803Z,95496.25
2023-05-10T06:07:51.028Z,95497.84
2023-05-10T06:10:37.542Z,95491.94
2023-05-10T06:13:23.462Z,95493.06
2023-05-10T06:16:09.629Z,95501.69
2023-05-10T06:18:56.402Z,95502.63
2023-05-10T06:21:42.743Z,95504.19
2023-05-10T06:24:28.888Z,95510.59
2023-05-10T06:27:14.569Z,95506.75
2023-05-10T06:30:11.929Z,95515.38
2023-05-10T06:33:01.356Z,95503.88
2023-05-10T06:35:47.283Z,95517.75
2023-05-10T06:38:33.393Z,95510.06
2023-05-10T06:41:19.197Z,95515.84
2023-05-10T06:44:05.368Z,95514.72
2023-05-10T06:46:51.247Z,95515.16
2023-05-10T06:49:38.275Z,95517.22
2023-05-10T06:52:24.665Z,95518.81
2023-05-10T06:55:14.947Z,95514.50
2023-05-10T06:58:04.057Z,95525.84
2023-05-10T07:00:50.040Z,95516.56
2023-05-10T07:03:35.846Z,95514.31
2023-05-10T07:06:32.141Z,95518.16
2023-05-10T07:09:18.764Z,95523.06
2023-05-10T07:12:04.964Z,95527.84
2023-05-10T07:14:50.871Z,95530.28
2023-05-10T07:17:37.083Z,95527.06
2023-05-10T07:20:23.049Z,95528.03
2023-05-10T07:23:09.280Z,95532.78
2023-05-10T07:25:55.227Z,95528.81
2023-05-10T07:28:41.655Z,95532.78
2023-05-10T07:31:27.832Z,95524.63
2023-05-10T07:34:13.925Z,95527.81
2023-05-10T07:37:00.401Z,95525.88
2023-05-10T07:39:46.599Z,95527.63
2023-05-10T07:42:32.243Z,95539.31
2023-05-10T07:45:18.240Z,95530.78
2023-05-10T07:48:04.257Z,95533.97
2023-05-10T07:50:50.227Z,95539.41
2023-05-10T07:53:36.242Z,95538.75
2023-05-10T07:56:28.384Z,95537.50
2023-05-10T07:59:18.478Z,95542.59
2023-05-10T08:02:04.160Z,95535.72
2023-05-10T08:04:50.039Z,95534.91
2023-05-10T08:07:35.675Z,95532.66
2023-05-10T08:10:21.580Z,95528.94
2023-05-10T08:13:07.508Z,95538.38
2023-05-10T08:15:54.255Z,95538.16
2023-05-10T08:18:40.993Z,95539.56
2023-05-10T08:21:27.259Z,95531.19
2023-05-10T08:24:13.067Z,95534.97
2023-05-10T08:26:59.213Z,95529.28
2023-05-10T08:29:50.041Z,95532.63
2023-05-10T08:32:36.757Z,95534.22
2023-05-10T08:35:22.500Z,95534.69
2023-05-10T08:38:08.346Z,95532.88
2023-05-10T08:40:58.076Z,95545.34
2023-05-10T08:43:47.280Z,95542.75
2023-05-10T08:46:36.777Z,95543.88
2023-05-10T08:49:22.992Z,95537.78
2023-05-10T08:52:09.447Z,95539.91
2023-05-10T08:54:55.334Z,95546.94
2023-05-10T08:57:41.117Z,95541.50
2023-05-10T09:00:28.471Z,95549.31
2023-05-10T09:03:14.279Z,95558.28
2023-05-10T09:06:00.380Z,95557.16
2023-05-10T09:08:46.870Z,95553.97
2023-05-10T09:11:33.188Z,95546.13
2023-05-10T09:14:19.892Z,95551.59
2023-05-10T09:17:05.979Z,95537.84
2023-05-10T09:20:00.622Z,95544.22
2023-05-10T09:22:46.749Z,95531.41
2023-05-10T09:25:34.681Z,95536.97
2023-05-10T09:28:21.525Z,95528.34
2023-05-10T09:31:07.500Z,95538.56
2023-05-10T09:33:54.019Z,95533.94
2023-05-10T09:36:55.319Z,95546.75
2023-05-10T09:39:42.469Z,95534.59
2023-05-10T09:42:28.254Z,95528.00
2023-05-10T09:45:14.107Z,95538.69
2023-05-10T09:48:00.943Z,95536.41
2023-05-10T09:50:46.854Z,95538.25
2023-05-10T09:53:33.010Z,95526.09
2023-05-10T09:56:39.982Z,95531.53
2023-05-10T09:59:28.336Z,95521.13
2023-05-10T10:02:16.037Z,95528.59
2023-05-10T10:05:06.865Z,95520.88
2023-05-10T10:07:53.518Z,95526.31
2023-05-10T10:10:41.502Z,95518.63
2023-05-10T10:13:27.693Z,95510.00
2023-05-10T10:16:13.875Z,95503.63
2023-05-10T10:18:59.823Z,95510.91
2023-05-10T10:21:45.886Z,95510.69
2023-05-10T10:24:31.692Z,95510.03
2023-05-10T10:27:20.412Z,95505.03
2023-05-10T10:30:15.146Z,95507.44
2023-05-10T10:33:10.406Z,95508.66
2023-05-10T10:36:04.228Z,95504.63
2023-05-10T10:38:49.867Z,95502.38
2023-05-10T10:41:37.748Z,95499.31
2023-05-10T10:44:26.416Z,95511.09
2023-05-10T10:47:13.022Z,95506.44
2023-05-10T10:49:59.034Z,95497.59
2023-05-10T10:52:45.670Z,95503.06
2023-05-10T10:55:32.250Z,95501.13
2023-05-10T10:58:36.418Z,95493.75
2023-05-10T11:01:22.508Z,95499.66
2023-05-10T11:04:08.332Z,95498.28
2023-05-10T11:07:17.532Z,95499.88
2023-05-10T11:10:06.785Z,95494.44
2023-05-10T11:13:03.712Z,95499.88
2023-05-10T11:15:51.300Z,95499.22
2023-05-10T11:18:37.893Z,95493.97
2023-05-10T11:21:24.430Z,95502.59
2023-05-10T11:24:15.256Z,95511.25
2023-05-10T11:27:01.964Z,95491.50
2023-05-10T11:29:47.851Z,95500.88
2023-05-10T11:32:33.969Z,95499.09
2023-05-10T11:35:20.056Z,95496.69
2023-05-10T11:38:12.923Z,95491.13
2023-05-10T11:40:59.224Z,95484.22
2023-05-10T11:43:50.078Z,95483.06
2023-05-10T11:46:37.744Z,95490.56
2023-05-10T11:49:25.740Z,95485.13
2023-05-10T11:52:14.460Z,95482.88
2023-05-10T11:55:00.832Z,95484.56
2023-05-10T11:57:53.315Z,95488.31
2023-05-10T12:00:39.577Z,95491.38
2023-05-10T12:03:27.091Z,95495.81
2023-05-10T12:06:13.283Z,95488.50
2023-05-10T12:08:59.657Z,95480.59
2023-05-10T12:11:45.850Z,95492.38
2023-05-10T12:14:36.217Z,95489.22
2023-05-10T12:17:22.199Z,95484.44
2023-05-10T12:20:22.194Z,95483.97
2023-05-10T12:23:10.381Z,95484.44
2023-05-10T12:26:14.853Z,95486.69
2023-05-10T12:29:30.388Z,95486.03
2023-05-10T12:32:16.381Z,95474.19
2023-05-10T12:35:05.040Z,95475.13
2023-05-10T12:37:52.780Z,95463.28
2023-05-10T12:41:12.538Z,95468.09
2023-05-10T12:43:58.557Z,95465.47
2023-05-10T12:46:44.449Z,95453.44
2023-05-10T12:49:30.377Z,95449.25
2023-05-10T12:52:16.837Z,95445.50
2023-05-10T12:55:04.209Z,95441.31
2023-05-10T12:57:50.193Z,95442.00
2023-05-10T13:00:36.491Z,95445.19
2023-05-10T13:03:22.555Z,95436.31
2023-05-10T13:06:08.405Z,95436.63
2023-05-10T13:08:55.909Z,95442.22
2023-05-10T13:11:42.015Z,95430.75
2023-05-10T13:14:28.461Z,95430.44
2023-05-10T13:17:14.224Z,95441.06
2023-05-10T13:20:00.856Z,95440.63
2023-05-10T13:22:47.001Z,95437.81
2023-05-10T13:25:33.154Z,95427.25
2023-05-10T13:28:19.168Z,95435.41
2023-05-10T13:31:06.051Z,95433.38
2023-05-10T13:33:52.859Z,95431.78
2023-05-10T13:36:39.157Z,95430.84
2023-05-10T13:39:25.225Z,95427.00
2023-05-10T13:42:11.261Z,95423.03
2023-05-10T13:44:57.035Z,95422.69
2023-05-10T13:47:43.069Z,95421.22
2023-05-10T13:50:29.367Z,95422.47
2023-05-10T13:53:15.751Z,95414.63
2023-05-10T13:56:03.269Z,95420.19
2023-05-10T13:58:49.088Z,95424.97
2023-05-10T14:01:35.090Z,95428.13
2023-05-10T14:04:20.977Z,95426.66
2023-05-10T14:07:06.877Z,95432.22
2023-05-10T14:10:00.574Z,95430.63
2023-05-10T14:12:46.717Z,95428.59
2023-05-10T14:15:32.312Z,95422.91
2023-05-10T14:18:18.593Z,95426.88
2023-05-10T14:21:05.246Z,95420.19
2023-05-10T14:23:51.276Z,95424.16
2023-05-10T14:26:37.476Z,95422.22
2023-05-10T14:29:24.561Z,95414.41
2023-05-10T14:32:10.874Z,95431.56
2023-05-10T14:34:56.993Z,95419.75
2023-05-10T14:37:43.930Z,95426.78
2023-05-10T14:40:29.939Z,95416.09
2023-05-10T14:43:18.583Z,95418.81
2023-05-10T14:46:04.515Z,95419.53
2023-05-10T14:48:50.710Z,95416.34
2023-05-10T14:51:38.014Z,95419.97
2023-05-10T14:54:24.097Z,95427.00
2023-05-10T14:57:09.887Z,95430.75
2023-05-10T14:59:58.930Z,95428.13
2023-05-10T15:02:45.707Z,95418.63
2023-05-10T15:05:32.198Z,95431.97
2023-05-10T15:08:18.455Z,95428.13
2023-05-10T15:11:04.690Z,95432.44
2023-05-10T15:13:52.219Z,95425.06
2023-05-10T15:16:38.520Z,95436.09
2023-05-10T15:19:24.862Z,95426.78
2023-05-10T15:22:11.480Z,95427.56
2023-05-10T15:24:57.257Z,95418.16
2023-05-10T15:27:45.762Z,95411.91
2023-05-10T15:30:32.036Z,95406.47
2023-05-10T15:33:18.181Z,95421.34
2023-05-10T15:36:05.332Z,95404.06
2023-05-10T15:38:51.181Z,95402.38
2023-05-10T15:41:37.545Z,95394.56
2023-05-10T15:44:24.340Z,95403.59
2023-05-10T15:47:10.571Z,95397.28
2023-05-10T15:49:56.566Z,95404.06
2023-05-10T15:52:42.452Z,95396.16
2023-05-10T15:55:28.964Z,95396.94
2023-05-10T15:58:14.905Z,95402.38
2023-05-10T16:01:01.893Z,95391.72
2023-05-10T16:03:47.846Z,95398.41
2023-05-10T16:06:34.317Z,95406.34
2023-05-10T16:09:20.052Z,95396.16
2023-05-10T16:12:05.935Z,95392.97
2023-05-10T16:14:52.783Z,95398.50
2023-05-10T16:17:38.995Z,95401.59
2023-05-10T16:20:25.325Z,95407.84
2023-05-10T16:23:11.900Z,95398.41
2023-05-10T16:25:57.849Z,95398.63
2023-05-10T16:28:43.915Z,95398.41
2023-05-10T16:31:29.995Z,95394.44
2023-05-10T16:34:16.514Z,95405.31
2023-05-10T16:37:02.349Z,95398.63
2023-05-10T16:39:48.468Z,95399.09
2023-05-10T16:42:34.526Z,95408.19
2023-05-10T16:45:20.781Z,95405.44
2023-05-10T16:48:07.013Z,95392.16
2023-05-10T16:50:53.092Z,95388.19
2023-05-10T16:53:39.364Z,95394.56
2023-05-10T16:56:25.370Z,95403.19
2023-05-10T16:59:11.576Z,95403.06
2023-05-10T17:01:57.922Z,95416.34
2023-05-10T17:04:43.805Z,95412.50
2023-05-10T17:07:29.677Z,95405.78
2023-05-10T17:10:16.353Z,95418.72
2023-05-10T17:13:03.758Z,95408.06
2023-05-10T17:15:49.866Z,95412.25
2023-05-10T17:18:35.868Z,95403.72
2023-05-10T17:21:22.035Z,95411.56
2023-05-10T17:24:08.226Z,95410.66
2023-05-10T17:26:54.527Z,95413.84
2023-05-10T17:29:40.780Z,95411.78
2023-05-10T17:32:27.001Z,95414.50
2023-05-10T17:35:12.894Z,95420.66
2023-05-10T17:37:59.055Z,95413.81
2023-05-10T17:40:45.072Z,95422.44
2023-05-10T17:43:30.906Z,95430.47
2023-05-10T17:46:17.729Z,95432.78
2023-05-10T17:49:03.707Z,95437.44
2023-05-10T17:51:49.686Z,95440.56
2023-05-10T17:54:35.914Z,95446.81
2023-05-10T17:57:21.747Z,95441.94
2023-05-10T18:00:09.331Z,95445.94
2023-05-10T18:02:55.119Z,95441.94
2023-05-10T18:05:41.403Z,95441.94
2023-05-10T18:08:28.867Z,95443.06
2023-05-10T18:11:14.926Z,95436.38
2023-05-10T18:14:00.784Z,95433.22
2023-05-10T18:16:46.668Z,95438.75
2023-05-10T18:19:33.024Z,95448.06
2023-05-10T18:22:19.259Z,95446.47
2023-05-10T18:25:05.848Z,95447.16
2023-05-10T18:27:52.512Z,95449.56
2023-05-10T18:30:38.667Z,95443.19
2023-05-10T18:33:26.166Z,95455.91
2023-05-10T18:36:12.586Z,95450.31
2023-05-10T18:38:59.116Z,95463.59
2023-05-10T18:41:45.995Z,95467.47
2023-05-10T18:44:32.039Z,95466.00
2023-05-10T18:47:18.718Z,95460.09
2023-05-10T18:50:05.724Z,95469.38
2023-05-10T18:52:51.882Z,95470.53
2023-05-10T18:55:38.129Z,95472.09
2023-05-10T18:58:24.338Z,95470.09
2023-05-10T19:01:10.928Z,95469.63
2023-05-10T19:03:59.494Z,95470.28
2023-05-10T19:06:46.554Z,95474.41
2023-05-10T19:09:32.985Z,95475.72
2023-05-10T19:12:19.424Z,95480.97
2023-05-10T19:15:06.829Z,95475.84
2023-05-10T19:17:54.260Z,95470.28
2023-05-10T19:20:42.346Z,95475.06
2023-05-10T19:23:29.155Z,95471.09
2023-05-10T19:26:16.260Z,95468.63
2023-05-10T19:29:04.125Z,95464.63
2023-05-10T19:31:53.068Z,95468.50
2023-05-10T19:34:40.021Z,95477.56
2023-05-10T19:37:26.308Z,95476.00
2023-05-10T19:40:16.516Z,95475.06
2023-05-10T19:43:05.326Z,95472.81
2023-05-10T19:45:54.218Z,95483.00
2023-05-10T19:48:41.501Z,95483.00
2023-05-10T19:51:29.267Z,95468.03
2023-05-10T19:54:17.032Z,95475.06
2023-05-10T19:57:04.679Z,95473.69
2023-05-10T19:59:51.376Z,95472.09
2023-05-10T20:02:37.541Z,95478.00
2023-05-10T20:05:24.070Z,95470.63
2023-05-10T20:08:10.966Z,95463.50
2023-05-10T20:11:02.945Z,95474.63
2023-05-10T20:13:49.245Z,95470.31
2023-05-10T20:16:35.670Z,95466.78
2023-05-10T20:19:39.927Z,95461.69
2023-05-10T20:22:26.529Z,95465.78
2023-05-10T20:25:15.227Z,95461.47
2023-05-10T20:28:04.421Z,95456.22
2023-05-10T20:30:54.630Z,95454.31
2023-05-10T20:33:42.410Z,95458.94
2023-05-10T20:36:29.406Z,95462.13
2023-05-10T20:39:16.524Z,95457.50
2023-05-10T20:42:04.296Z,95459.88
2023-05-10T20:44:50.885Z,95442.63
2023-05-10T20:47:38.240Z,95446.47
2023-05-10T20:50:24.692Z,95456.69
2023-05-10T20:53:12.133Z,95444.88
2023-05-10T20:55:59.116Z,95459.41
2023-05-10T20:58:45.219Z,95452.72
2023-05-10T21:01:32.220Z,95443.31
2023-05-10T21:04:18.162Z,95449.19
2023-05-10T21:07:04.261Z,95445.56
2023-05-10T21:09:50.374Z,95450.78
2023-05-10T21:12:37.183Z,95451.91
2023-05-10T21:15:24.607Z,95441.94
2023-05-10T21:18:10.731Z,95438.06
2023-05-10T21:20:56.816Z,95438.53
2023-05-10T21:23:42.648Z,95437.75
2023-05-10T21:26:28.786Z,95434.69
2023-05-10T21:29:14.953Z,95433.75
2023-05-10T21:32:01.306Z,95428.31
2023-05-10T21:34:47.337Z,95424.00
2023-05-10T21:37:33.156Z,95426.06
2023-05-10T21:40:19.522Z,95429.91
2023-05-10T21:43:06.234Z,95424.47
2023-05-10T21:45:52.050Z,95428.97
2023-05-10T21:48:37.738Z,95423.53
2023-05-10T21:51:23.622Z,95433.31
2023-05-10T21:54:09.636Z,95420.25
2023-05-10T21:56:55.464Z,95434.44
2023-05-10T21:59:41.187Z,95432.84
2023-05-10T22:02:26.897Z,95431.28
2023-05-10T22:05:13.190Z,95429.69
2023-05-10T22:07:58.987Z,95432.75
2023-05-10T22:10:44.805Z,95429.22
2023-05-10T22:13:31.172Z,95431.94
2023-05-10T22:16:17.436Z,95440.56
2023-05-10T22:19:03.524Z,95432.59
2023-05-10T22:21:49.453Z,95436.47
2023-05-10T22:24:35.457Z,95425.56
2023-05-10T22:27:21.464Z,95433.53
2023-05-10T22:30:08.714Z,95428.28
2023-05-10T22:32:54.650Z,95430.81
2023-05-10T22:35:40.732Z,95423.31
2023-05-10T22:38:26.581Z,95420.13
2023-05-10T22:41:12.375Z,95424.56
2023-05-10T22:43:58.448Z,95412.44
2023-05-10T22:46:44.409Z,95421.38
2023-05-10T22:49:30.324Z,95422.53
2023-05-10T22:52:16.013Z,95425.69
2023-05-10T22:55:02.421Z,95414.69
2023-05-10T22:57:48.611Z,95419.34
2023-05-10T23:00:34.839Z,95416.63
2023-05-10T23:03:20.972Z,95423.78
2023-05-10T23:06:07.122Z,95422.53
2023-05-10T23:08:53.150Z,95408.78
2023-05-10T23:11:38.876Z,95416.94
2023-05-10T23:14:24.646Z,95399.81
2023-05-10T23:17:10.321Z,95406.75
2023-05-10T23:19:56.388Z,95400.53
2023-05-10T23:22:42.552Z,95403.69
2023-05-10T23:25:28.390Z,95409.91
2023-05-10T23:28:14.485Z,95401.75
2023-05-10T23:31:00.677Z,95399.81
2023-05-10T23:33:47.076Z,95385.66
2023-05-10T23:36:33.421Z,95394.28
2023-05-10T23:39:19.285Z,95392.22
2023-05-10T23:42:05.668Z,95389.50
2023-05-10T23:44:52.621Z,95388.03
2023-05-10T23:47:38.549Z,95388.84
2023-05-10T23:50:24.477Z,95384.06
2023-05-10T23:53:10.681Z,95385.66
2023-05-10T23:55:56.782Z,95393.47
2023-05-10T23:58:42.961Z,95398.59
